Map

Track Data

SID SEASON NUMBER BASIN SUBBASIN NAME ISO_TIME NATURE LAT LON WMO_WIND WMO_PRES WMO_AGENCY TRACK_TYPE DIST2LAND LANDFALL IFLAG USA_AGENCY USA_ATCF_ID USA_LAT USA_LON USA_RECORD USA_STATUS USA_WIND USA_PRES USA_SSHS USA_R34_NE USA_R34_SE USA_R34_SW USA_R34_NW USA_R50_NE USA_R50_SE USA_R50_SW USA_R50_NW USA_R64_NE USA_R64_SE USA_R64_SW USA_R64_NW USA_POCI USA_ROCI USA_RMW USA_EYE TOKYO_LAT TOKYO_LON TOKYO_GRADE TOKYO_WIND TOKYO_PRES TOKYO_R50_DIR TOKYO_R50_LONG TOKYO_R50_SHORT TOKYO_R30_DIR TOKYO_R30_LONG TOKYO_R30_SHORT TOKYO_LAND CMA_LAT CMA_LON CMA_CAT CMA_WIND CMA_PRES HKO_LAT HKO_LON HKO_CAT HKO_WIND HKO_PRES NEWDELHI_LAT NEWDELHI_LON NEWDELHI_GRADE NEWDELHI_WIND NEWDELHI_PRES NEWDELHI_CI NEWDELHI_DP NEWDELHI_POCI REUNION_LAT REUNION_LON REUNION_TYPE REUNION_WIND REUNION_PRES REUNION_TNUM REUNION_CI REUNION_RMW REUNION_R34_NE REUNION_R34_SE REUNION_R34_SW REUNION_R34_NW REUNION_R50_NE REUNION_R50_SE REUNION_R50_SW REUNION_R50_NW REUNION_R64_NE REUNION_R64_SE REUNION_R64_SW REUNION_R64_NW BOM_LAT BOM_LON BOM_TYPE BOM_WIND BOM_PRES BOM_TNUM BOM_CI BOM_RMW BOM_R34_NE BOM_R34_SE BOM_R34_SW BOM_R34_NW BOM_R50_NE BOM_R50_SE BOM_R50_SW BOM_R50_NW BOM_R64_NE BOM_R64_SE BOM_R64_SW BOM_R64_NW BOM_ROCI BOM_POCI BOM_EYE BOM_POS_METHOD BOM_PRES_METHOD NADI_LAT NADI_LON NADI_CAT NADI_WIND NADI_PRES WELLINGTON_LAT WELLINGTON_LON WELLINGTON_WIND WELLINGTON_PRES DS824_LAT DS824_LON DS824_STAGE DS824_WIND DS824_PRES TD9636_LAT TD9636_LON TD9636_STAGE TD9636_WIND TD9636_PRES TD9635_LAT TD9635_LON TD9635_WIND TD9635_PRES TD9635_ROCI NEUMANN_LAT NEUMANN_LON NEUMANN_CLASS NEUMANN_WIND NEUMANN_PRES MLC_LAT MLC_LON MLC_CLASS MLC_WIND MLC_PRES USA_GUST BOM_GUST BOM_GUST_PER REUNION_GUST REUNION_GUST_PER USA_SEAHGT USA_SEARAD_NE USA_SEARAD_SE USA_SEARAD_SW USA_SEARAD_NW STORM_SPEED STORM_DIR
1925159N26126 1925 22 WP MM NOT_NAMED 1925-06-07 22:00:00 NR 26.2000 125.800 main 403 403 __________O___ -1 26.2000 125.800 2 7 30
1925159N26126 1925 22 WP MM NOT_NAMED 1925-06-08 00:00:00 NR 26.3962 125.925 main 420 420 __________P___ -1 26.3962 125.925 2 7 31
1925159N26126 1925 22 WP MM NOT_NAMED 1925-06-08 03:00:00 NR 26.6856 126.122 main 451 451 __________P___ -1 26.6856 126.122 2 7 33
1925159N26126 1925 22 WP MM NOT_NAMED 1925-06-08 06:00:00 NR 26.9626 126.343 main 483 490 __________P___ -1 26.9626 126.343 2 7 39
1925159N26126 1925 22 WP MM NOT_NAMED 1925-06-08 09:00:00 NR 27.2199 126.603 main 502 502 __________P___ -1 27.2199 126.603 2 7 43
1925159N26126 1925 22 WP MM NOT_NAMED 1925-06-08 10:00:00 NR 27.3000 126.700 main 506 506 __________O___ -1 27.3000 126.700 2 7 50
1925159N26126 1925 22 WP MM NOT_NAMED 1925-06-08 12:00:00 NR 27.4498 126.912 main 519 490 __________P___ -1 27.4498 126.912 2 7 55
1925159N26126 1925 22 WP MM NOT_NAMED 1925-06-08 15:00:00 NR 27.6434 127.256 main 490 455 __________P___ -1 27.6434 127.256 2 7 61
1925159N26126 1925 22 WP MM NOT_NAMED 1925-06-08 18:00:00 NR 27.7909 127.600 main 455 430 __________P___ -1 27.7909 127.600 2 6 68
1925159N26126 1925 22 WP MM NOT_NAMED 1925-06-08 21:00:00 NR 27.8831 127.910 main 430 425 __________P___ -1 27.8831 127.910 2 6 73
1925159N26126 1925 22 WP MM NOT_NAMED 1925-06-08 22:00:00 NR 27.9000 128.000 main 425 420 __________O___ -1 27.9000 128.000 2 4 81
1925159N26126 1925 22 WP MM NOT_NAMED 1925-06-09 00:00:00 NR 27.9146 128.138 main 420 411 __________P___ -1 27.9146 128.138 2 3 93
1925159N26126 1925 22 WP MM NOT_NAMED 1925-06-09 03:00:00 NR 27.8864 128.300 main 411 407 __________P___ -1 27.8864 128.300 2 3 111
1925159N26126 1925 22 WP MM NOT_NAMED 1925-06-09 06:00:00 NR 27.8175 128.431 main 417 413 __________P___ -1 27.8175 128.431 2 3 124
1925159N26126 1925 22 WP MM NOT_NAMED 1925-06-09 09:00:00 NR 27.7297 128.555 main 420 420 __________P___ -1 27.7297 128.555 2 3 128
1925159N26126 1925 22 WP MM NOT_NAMED 1925-06-09 10:00:00 NR 27.7000 128.600 main 420 416 __________O___ -1 27.7000 128.600 2 2 120
1925159N26126 1925 22 WP MM NOT_NAMED 1925-06-09 12:00:00 NR 27.6734 128.666 main 416 416 __________P___ -1 27.6734 128.666 2 2 116
1925159N26126 1925 22 WP MM NOT_NAMED 1925-06-09 15:00:00 NR 27.6276 128.770 main 421 417 __________P___ -1 27.6276 128.770 2 3 117
1925159N26126 1925 22 WP MM NOT_NAMED 1925-06-09 18:00:00 NR 27.5589 128.925 main 417 416 __________P___ -1 27.5589 128.925 2 4 116
1925159N26126 1925 22 WP MM NOT_NAMED 1925-06-09 21:00:00 NR 27.4490 129.183 main 427 424 __________P___ -1 27.4490 129.183 2 6 116
1925159N26126 1925 22 WP MM NOT_NAMED 1925-06-09 22:00:00 NR 27.4000 129.300 main 424 421 __________O___ -1 27.4000 129.300 2 8 118
1925159N26126 1925 22 WP MM NOT_NAMED 1925-06-10 00:00:00 NR 27.2602 129.583 main 426 433 __________P___ -1 27.2602 129.583 2 10 119
1925159N26126 1925 22 WP MM NOT_NAMED 1925-06-10 03:00:00 NR 27.0058 130.114 main 450 449 __________P___ -1 27.0058 130.114 2 12 117
1925159N26126 1925 22 WP MM NOT_NAMED 1925-06-10 06:00:00 NR 26.7313 130.747 main 480 480 __________P___ -1 26.7313 130.747 2 13 114
1925159N26126 1925 22 WP MM NOT_NAMED 1925-06-10 09:00:00 NR 26.4748 131.453 main 508 508 __________P___ -1 26.4748 131.453 2 14 111
1925159N26126 1925 22 WP MM NOT_NAMED 1925-06-10 10:00:00 NR 26.4000 131.700 main 522 522 __________O___ -1 26.4000 131.700 2 14 107
1925159N26126 1925 22 WP MM NOT_NAMED 1925-06-10 12:00:00 NR 26.2720 132.207 main 544 544 __________P___ -1 26.2720 132.207 2 14 103
1925159N26126 1925 22 WP MM NOT_NAMED 1925-06-10 15:00:00 NR 26.1256 132.993 main 591 591 __________P___ -1 26.1256 132.993 2 15 100
1925159N26126 1925 22 WP MM NOT_NAMED 1925-06-10 18:00:00 NR 26.0172 133.803 main 634 634 __________P___ -1 26.0172 133.803 2 15 98
1925159N26126 1925 22 WP MM NOT_NAMED 1925-06-10 21:00:00 NR 25.9284 134.625 main 684 690 __________P___ -1 25.9284 134.625 2 15 97
1925159N26126 1925 22 WP MM NOT_NAMED 1925-06-10 22:00:00 NR 25.9000 134.900 main 701 __________O___ -1 25.9000 134.900 2 15 97

Digital Typhoon Data and Search

About IBTrACS Database

This database is a web-friendly format of International Best Track Archive for Climate Stewardship (IBTrACS), a global best track data archive curated by NOAA dating back to 1842.

Updated: 2021-11-26